createdAt,value
2018-10-18T00:00:31.422Z,6.70
2018-10-18T00:03:00.137Z,6.50
2018-10-18T00:05:28.683Z,6.50
2018-10-18T00:07:57.310Z,6.40
2018-10-18T00:10:25.747Z,6.40
2018-10-18T00:12:54.261Z,6.40
2018-10-18T00:15:22.723Z,6.40
2018-10-18T00:17:51.390Z,6.50
2018-10-18T00:20:19.816Z,6.40
2018-10-18T00:22:48.295Z,6.40
2018-10-18T00:25:16.977Z,6.40
2018-10-18T00:27:45.442Z,6.40
2018-10-18T00:30:14.811Z,6.30
2018-10-18T00:32:44.062Z,6.30
2018-10-18T00:35:12.740Z,6.30
2018-10-18T00:37:41.231Z,6.30
2018-10-18T00:40:11.079Z,6.30
2018-10-18T00:42:39.669Z,6.40
2018-10-18T00:45:09.035Z,6.50
2018-10-18T00:47:37.551Z,6.40
2018-10-18T00:50:07.183Z,6.30
2018-10-18T00:52:35.552Z,6.40
2018-10-18T00:55:04.069Z,6.20
2018-10-18T00:57:32.519Z,6.20
2018-10-18T01:00:01.022Z,6.10
2018-10-18T01:02:29.389Z,6.10
2018-10-18T01:04:57.817Z,6.00
2018-10-18T01:07:26.239Z,6.00
2018-10-18T01:09:54.676Z,5.90
2018-10-18T01:12:23.178Z,5.80
2018-10-18T01:14:51.607Z,5.80
2018-10-18T01:17:20.061Z,5.80
2018-10-18T01:19:48.500Z,5.80
2018-10-18T01:22:16.977Z,5.70
2018-10-18T01:24:45.439Z,5.80
2018-10-18T01:27:13.925Z,5.80
2018-10-18T01:29:42.397Z,5.80
2018-10-18T01:32:10.983Z,5.70
2018-10-18T01:34:39.426Z,5.80
2018-10-18T01:37:07.906Z,5.80
2018-10-18T01:39:36.332Z,5.80
2018-10-18T01:42:05.362Z,5.80
2018-10-18T01:44:33.843Z,5.80
2018-10-18T01:47:03.061Z,5.80
2018-10-18T01:49:31.578Z,5.80
2018-10-18T01:52:00.028Z,5.70
2018-10-18T01:54:28.466Z,5.70
2018-10-18T01:56:56.927Z,5.70
2018-10-18T01:59:25.403Z,5.70
2018-10-18T02:01:53.928Z,5.70
2018-10-18T02:04:22.471Z,5.70
2018-10-18T02:06:50.908Z,5.70
2018-10-18T02:09:19.390Z,5.70
2018-10-18T02:11:47.834Z,5.70
2018-10-18T02:14:16.291Z,5.70
2018-10-18T02:16:44.771Z,5.60
2018-10-18T02:19:13.265Z,5.60
2018-10-18T02:21:41.733Z,5.60
2018-10-18T02:24:10.322Z,5.70
2018-10-18T02:26:38.660Z,5.60
2018-10-18T02:29:07.160Z,5.60
2018-10-18T02:31:35.619Z,5.70
2018-10-18T02:34:04.087Z,5.60
2018-10-18T02:36:32.595Z,5.50
2018-10-18T02:39:01.056Z,5.50
2018-10-18T02:41:29.501Z,5.60
2018-10-18T02:43:57.929Z,5.60
2018-10-18T02:46:26.380Z,5.50
2018-10-18T02:48:54.835Z,5.50
2018-10-18T02:51:23.308Z,5.40
2018-10-18T02:53:51.799Z,5.40
2018-10-18T02:56:20.278Z,5.30
2018-10-18T02:58:48.814Z,5.30
2018-10-18T03:01:17.228Z,5.30
2018-10-18T03:03:45.680Z,5.30
2018-10-18T03:06:14.293Z,5.30
2018-10-18T03:08:42.602Z,5.20
2018-10-18T03:11:11.041Z,5.20
2018-10-18T03:13:39.542Z,5.20
2018-10-18T03:16:08.002Z,5.20
2018-10-18T03:18:36.449Z,5.20
2018-10-18T03:21:04.909Z,5.10
2018-10-18T03:23:33.355Z,5.10
2018-10-18T03:26:01.795Z,5.20
2018-10-18T03:28:30.209Z,5.10
2018-10-18T03:30:58.659Z,5.10
2018-10-18T03:33:27.097Z,5.00
2018-10-18T03:35:55.630Z,5.00
2018-10-18T03:38:23.981Z,5.00
2018-10-18T03:40:52.421Z,5.00
2018-10-18T03:43:20.845Z,5.00
2018-10-18T03:45:49.401Z,4.90
2018-10-18T03:48:17.931Z,5.00
2018-10-18T03:50:46.333Z,4.90
2018-10-18T03:53:14.775Z,4.90
2018-10-18T03:55:43.248Z,4.90
2018-10-18T03:58:11.693Z,4.90
2018-10-18T04:00:40.170Z,4.90
2018-10-18T04:03:08.635Z,4.90
2018-10-18T04:05:37.179Z,4.90
2018-10-18T04:08:05.966Z,5.00
2018-10-18T04:10:34.379Z,5.00
2018-10-18T04:13:02.883Z,5.10
2018-10-18T04:15:31.341Z,5.10
2018-10-18T04:17:59.884Z,5.20
2018-10-18T04:20:28.269Z,5.20
2018-10-18T04:22:56.765Z,5.30
2018-10-18T04:25:25.265Z,5.30
2018-10-18T04:27:53.712Z,5.30
2018-10-18T04:30:22.343Z,5.20
2018-10-18T04:32:50.634Z,5.20
2018-10-18T04:35:19.109Z,5.20
2018-10-18T04:37:47.553Z,5.20
2018-10-18T04:40:16.091Z,5.10
2018-10-18T04:42:44.550Z,5.00
2018-10-18T04:45:13.101Z,5.00
2018-10-18T04:47:41.663Z,4.90
2018-10-18T04:50:10.479Z,4.90
2018-10-18T04:52:38.951Z,4.90
2018-10-18T04:55:07.822Z,5.00
2018-10-18T04:57:36.193Z,4.90
2018-10-18T05:00:04.805Z,4.80
2018-10-18T05:02:33.301Z,4.80
2018-10-18T05:05:13.044Z,4.70
2018-10-18T05:07:41.510Z,4.70
2018-10-18T05:10:09.951Z,4.80
2018-10-18T05:12:39.262Z,4.70
2018-10-18T05:15:08.489Z,4.80
2018-10-18T05:17:37.023Z,4.80
2018-10-18T05:20:06.037Z,4.80
2018-10-18T05:22:34.584Z,4.70
2018-10-18T05:25:03.096Z,4.80
2018-10-18T05:27:31.648Z,4.80
2018-10-18T05:30:00.064Z,4.80
2018-10-18T05:32:28.507Z,4.80
2018-10-18T05:34:56.953Z,4.80
2018-10-18T05:37:25.421Z,5.30
2018-10-18T05:39:53.884Z,5.30
2018-10-18T05:42:22.373Z,5.20
2018-10-18T05:44:50.846Z,5.20
2018-10-18T05:47:19.461Z,5.10
2018-10-18T05:49:47.883Z,5.10
2018-10-18T05:52:16.364Z,5.10
2018-10-18T05:54:44.805Z,5.10
2018-10-18T05:57:13.249Z,5.20
2018-10-18T05:59:41.716Z,5.20
2018-10-18T06:02:10.193Z,5.10
2018-10-18T06:04:38.636Z,5.20
2018-10-18T06:07:07.227Z,5.30
2018-10-18T06:09:35.668Z,5.40
2018-10-18T06:12:04.380Z,5.50
2018-10-18T06:14:32.830Z,5.50
2018-10-18T06:17:01.326Z,5.60
2018-10-18T06:19:29.790Z,5.70
2018-10-18T06:21:58.313Z,5.80
2018-10-18T06:24:26.807Z,5.90
2018-10-18T06:26:55.266Z,6.00
2018-10-18T06:29:23.750Z,6.10
2018-10-18T06:31:52.186Z,6.10
2018-10-18T06:34:20.676Z,6.20
2018-10-18T06:36:49.150Z,6.30
2018-10-18T06:39:17.682Z,6.30
2018-10-18T06:41:46.125Z,6.40
2018-10-18T06:44:14.595Z,6.60
2018-10-18T06:46:43.172Z,6.50
2018-10-18T06:49:11.727Z,6.60
2018-10-18T06:51:40.159Z,6.60
2018-10-18T06:54:08.684Z,6.70
2018-10-18T06:56:37.087Z,6.90
2018-10-18T06:59:05.578Z,7.00
2018-10-18T07:01:34.080Z,7.20
2018-10-18T07:04:02.545Z,7.50
2018-10-18T07:06:30.989Z,7.40
2018-10-18T07:08:59.530Z,7.80
2018-10-18T07:11:27.946Z,7.80
2018-10-18T07:13:56.435Z,8.20
2018-10-18T07:16:24.917Z,8.00
2018-10-18T07:18:53.464Z,8.20
2018-10-18T07:21:21.984Z,8.40
2018-10-18T07:23:50.463Z,8.50
2018-10-18T07:26:18.979Z,8.80
2018-10-18T07:28:47.605Z,9.20
2018-10-18T07:31:16.047Z,9.80
2018-10-18T07:33:44.563Z,10.20
2018-10-18T07:36:13.176Z,10.40
2018-10-18T07:38:41.550Z,10.50
2018-10-18T07:41:10.108Z,11.30
2018-10-18T07:43:38.612Z,12.00
2018-10-18T07:46:07.155Z,12.90
2018-10-18T07:48:35.632Z,13.80
2018-10-18T07:51:04.105Z,14.50
2018-10-18T07:53:32.735Z,14.70
2018-10-18T07:56:01.090Z,15.90
2018-10-18T07:58:29.549Z,16.20
2018-10-18T08:00:58.087Z,16.90
2018-10-18T08:03:26.532Z,17.40
2018-10-18T08:05:54.999Z,18.00
2018-10-18T08:08:23.469Z,18.80
2018-10-18T08:10:52.010Z,18.20
2018-10-18T08:13:20.554Z,19.00
2018-10-18T08:15:48.947Z,20.10
2018-10-18T08:18:17.426Z,20.40
2018-10-18T08:20:45.889Z,20.50
2018-10-18T08:23:14.383Z,19.90
2018-10-18T08:25:42.903Z,20.60
2018-10-18T08:28:11.409Z,20.70
2018-10-18T08:30:39.913Z,20.50
2018-10-18T08:33:08.496Z,20.90
2018-10-18T08:35:36.985Z,22.00
2018-10-18T08:38:05.970Z,22.30
2018-10-18T08:40:34.387Z,22.50
2018-10-18T08:43:02.977Z,23.20
2018-10-18T08:45:31.486Z,23.30
2018-10-18T08:48:00.005Z,23.30
2018-10-18T08:50:28.482Z,23.40
2018-10-18T08:52:56.947Z,23.60
2018-10-18T08:55:25.428Z,24.20
2018-10-18T08:57:53.881Z,23.90
2018-10-18T09:00:22.322Z,24.50
2018-10-18T09:02:50.821Z,24.50
2018-10-18T09:05:19.282Z,25.20
2018-10-18T09:07:47.733Z,25.30
2018-10-18T09:10:16.188Z,26.10
2018-10-18T09:12:44.720Z,26.60
2018-10-18T09:15:13.206Z,27.20
2018-10-18T09:17:41.681Z,26.20
2018-10-18T09:20:10.187Z,27.20
2018-10-18T09:22:38.642Z,27.20
2018-10-18T09:25:08.173Z,27.20
2018-10-18T09:27:36.640Z,27.60
2018-10-18T09:30:06.395Z,27.70
2018-10-18T09:32:34.803Z,27.70
2018-10-18T09:35:03.303Z,27.60
2018-10-18T09:37:31.781Z,27.70
2018-10-18T09:40:00.296Z,27.80
2018-10-18T09:42:28.849Z,28.10
2018-10-18T09:44:57.411Z,28.60
2018-10-18T09:47:25.809Z,28.80
2018-10-18T09:49:54.324Z,28.30
2018-10-18T09:52:22.773Z,28.50
2018-10-18T09:54:51.254Z,29.40
2018-10-18T09:57:19.697Z,29.10
2018-10-18T09:59:48.171Z,28.70
2018-10-18T10:02:22.067Z,29.40
2018-10-18T10:04:50.583Z,29.50
2018-10-18T10:07:19.127Z,29.70
2018-10-18T10:09:47.628Z,29.70
2018-10-18T10:12:16.092Z,29.50
2018-10-18T10:14:44.586Z,29.50
2018-10-18T10:17:13.128Z,30.00
2018-10-18T10:19:41.550Z,29.20
2018-10-18T10:22:10.044Z,29.20
2018-10-18T10:24:38.585Z,29.50
2018-10-18T10:27:07.106Z,29.80
2018-10-18T10:29:35.575Z,30.40
2018-10-18T10:32:04.132Z,29.90
2018-10-18T10:34:32.610Z,30.20
2018-10-18T10:37:01.147Z,30.10
2018-10-18T10:39:29.628Z,30.10
2018-10-18T10:41:58.094Z,29.50
2018-10-18T10:44:26.654Z,30.30
2018-10-18T10:46:55.108Z,30.40
2018-10-18T10:49:23.600Z,30.60
2018-10-18T10:51:52.100Z,30.80
2018-10-18T10:54:20.598Z,31.20
2018-10-18T10:56:49.200Z,31.40
2018-10-18T10:59:18.831Z,31.50
2018-10-18T11:01:47.323Z,30.80
2018-10-18T11:04:15.821Z,30.10
2018-10-18T11:06:44.286Z,29.30
2018-10-18T11:09:19.248Z,29.00
2018-10-18T11:11:47.776Z,27.70
2018-10-18T11:14:16.320Z,27.00
2018-10-18T11:16:44.731Z,26.60
2018-10-18T11:19:13.548Z,25.90
2018-10-18T11:21:42.103Z,25.00
2018-10-18T11:24:10.696Z,24.10
2018-10-18T11:26:39.112Z,23.80
2018-10-18T11:29:07.601Z,23.80
2018-10-18T11:31:36.042Z,23.90
2018-10-18T11:34:04.619Z,24.30
2018-10-18T11:36:33.149Z,24.30
2018-10-18T11:39:01.638Z,24.20
2018-10-18T11:41:30.180Z,24.40
2018-10-18T11:43:58.658Z,24.60
2018-10-18T11:46:27.125Z,24.70
2018-10-18T11:48:55.569Z,25.20
2018-10-18T11:51:24.121Z,25.70
2018-10-18T11:53:52.577Z,25.90
2018-10-18T11:56:21.053Z,26.10
2018-10-18T11:58:49.502Z,25.90
2018-10-18T12:01:18.215Z,25.70
2018-10-18T12:03:46.637Z,25.60
2018-10-18T12:06:15.188Z,25.80
2018-10-18T12:08:43.684Z,25.90
2018-10-18T12:11:12.165Z,26.30
2018-10-18T12:13:40.666Z,26.60
2018-10-18T12:16:09.153Z,27.30
2018-10-18T12:18:37.617Z,26.90
2018-10-18T12:21:06.125Z,27.00
2018-10-18T12:23:34.606Z,26.80
2018-10-18T12:26:03.077Z,26.40
2018-10-18T12:28:31.555Z,26.00
2018-10-18T12:31:00.005Z,25.60
2018-10-18T12:33:28.526Z,25.20
2018-10-18T12:35:57.017Z,24.80
2018-10-18T12:38:25.538Z,24.30
2018-10-18T12:40:54.121Z,24.10
2018-10-18T12:43:22.701Z,23.90
2018-10-18T12:45:51.149Z,23.70
2018-10-18T12:48:19.883Z,23.70
2018-10-18T12:50:48.219Z,23.80
2018-10-18T12:53:16.689Z,23.70
2018-10-18T12:55:45.213Z,23.50
2018-10-18T12:58:13.685Z,23.50
2018-10-18T13:00:42.165Z,23.20
2018-10-18T13:03:10.645Z,22.90
2018-10-18T13:05:39.105Z,22.90
2018-10-18T13:08:07.602Z,22.70
2018-10-18T13:10:36.150Z,22.40
2018-10-18T13:13:04.621Z,22.00
2018-10-18T13:15:33.082Z,21.90
2018-10-18T13:18:01.572Z,21.60
2018-10-18T13:20:30.044Z,21.40
2018-10-18T13:22:58.534Z,21.30
2018-10-18T13:25:27.062Z,20.90
2018-10-18T13:27:55.473Z,20.90
2018-10-18T13:30:23.934Z,20.70
2018-10-18T13:32:52.445Z,20.70
2018-10-18T13:35:20.921Z,20.70
2018-10-18T13:37:49.384Z,20.60
2018-10-18T13:40:17.834Z,20.60
2018-10-18T13:42:46.330Z,20.60
2018-10-18T13:45:14.830Z,20.60
2018-10-18T13:47:43.329Z,20.40
2018-10-18T13:50:11.828Z,20.50
2018-10-18T13:52:40.378Z,20.50
2018-10-18T13:55:08.878Z,20.50
2018-10-18T13:57:37.374Z,20.60
2018-10-18T14:00:23.931Z,20.40
2018-10-18T14:02:53.360Z,20.20
2018-10-18T14:05:22.090Z,20.20
2018-10-18T14:07:51.790Z,20.20
2018-10-18T14:10:20.177Z,20.00
2018-10-18T14:12:48.720Z,19.90
2018-10-18T14:15:17.250Z,19.70
2018-10-18T14:17:45.866Z,19.60
2018-10-18T14:20:14.281Z,19.50
2018-10-18T14:22:42.766Z,19.50
2018-10-18T14:25:11.307Z,19.50
2018-10-18T14:27:39.887Z,19.30
2018-10-18T14:30:10.040Z,19.30
2018-10-18T14:32:38.757Z,19.20
2018-10-18T14:35:08.387Z,19.10
2018-10-18T14:37:36.853Z,19.00
2018-10-18T14:40:06.049Z,19.00
2018-10-18T14:42:34.591Z,18.90
2018-10-18T14:45:03.147Z,18.70
2018-10-18T14:47:31.610Z,18.70
2018-10-18T14:50:00.082Z,18.60
2018-10-18T14:52:28.585Z,18.50
2018-10-18T14:54:57.092Z,18.40
2018-10-18T14:57:25.642Z,18.30
2018-10-18T14:59:54.071Z,18.20
2018-10-18T15:02:22.553Z,18.10
2018-10-18T15:04:51.070Z,18.00
2018-10-18T15:07:19.640Z,17.90
2018-10-18T15:09:48.126Z,17.80
2018-10-18T15:12:16.573Z,17.70
2018-10-18T15:14:45.054Z,17.60
2018-10-18T15:17:13.540Z,17.60
2018-10-18T15:19:42.092Z,17.50
2018-10-18T15:22:10.513Z,17.40
2018-10-18T15:24:39.016Z,17.30
2018-10-18T15:27:07.608Z,17.20
2018-10-18T15:29:36.058Z,17.10
2018-10-18T15:32:04.676Z,16.90
2018-10-18T15:34:33.122Z,16.80
2018-10-18T15:37:01.625Z,16.70
2018-10-18T15:39:30.167Z,16.50
2018-10-18T15:41:58.714Z,16.30
2018-10-18T15:44:27.324Z,16.00
2018-10-18T15:46:55.898Z,15.80
2018-10-18T15:49:24.350Z,15.70
2018-10-18T15:51:52.926Z,15.50
2018-10-18T15:54:21.534Z,15.30
2018-10-18T15:56:49.975Z,15.20
2018-10-18T15:59:18.586Z,15.10
2018-10-18T16:01:47.084Z,15.10
2018-10-18T16:04:15.660Z,15.00
2018-10-18T16:06:44.150Z,14.90
2018-10-18T16:09:13.923Z,14.70
2018-10-18T16:11:42.506Z,14.60
2018-10-18T16:14:11.102Z,14.60
2018-10-18T16:16:39.602Z,14.50
2018-10-18T16:19:08.131Z,14.20
2018-10-18T16:21:36.692Z,14.10
2018-10-18T16:24:05.782Z,13.90
2018-10-18T16:26:34.325Z,13.90
2018-10-18T16:29:02.789Z,13.70
2018-10-18T16:31:31.283Z,13.70
2018-10-18T16:34:00.528Z,13.60
2018-10-18T16:36:29.302Z,13.60
2018-10-18T16:38:57.810Z,13.50
2018-10-18T16:41:26.837Z,13.40
2018-10-18T16:43:55.150Z,13.30
2018-10-18T16:46:23.661Z,13.20
2018-10-18T16:48:52.211Z,12.90
2018-10-18T16:51:20.707Z,12.80
2018-10-18T16:53:49.309Z,12.70
2018-10-18T16:56:17.891Z,12.60
2018-10-18T16:58:46.345Z,12.60
2018-10-18T17:01:14.886Z,12.60
2018-10-18T17:03:44.922Z,12.60
2018-10-18T17:06:14.085Z,12.50
2018-10-18T17:08:42.670Z,12.40
2018-10-18T17:11:11.265Z,12.40
2018-10-18T17:13:39.752Z,12.30
2018-10-18T17:16:08.380Z,12.20
2018-10-18T17:18:36.887Z,12.10
2018-10-18T17:21:05.897Z,12.00
2018-10-18T17:23:34.511Z,12.10
2018-10-18T17:26:03.131Z,11.90
2018-10-18T17:28:31.674Z,11.90
2018-10-18T17:31:00.421Z,11.90
2018-10-18T17:33:29.299Z,11.90
2018-10-18T17:35:58.302Z,11.80
2018-10-18T17:38:27.202Z,11.80
2018-10-18T17:40:56.513Z,11.80
2018-10-18T17:43:25.661Z,11.70
2018-10-18T17:45:54.516Z,11.60
2018-10-18T17:48:23.412Z,11.50
2018-10-18T17:50:52.341Z,11.40
2018-10-18T17:53:21.203Z,11.20
2018-10-18T17:55:50.580Z,11.00
2018-10-18T17:58:19.569Z,11.00
2018-10-18T18:00:49.205Z,11.10
2018-10-18T18:03:18.896Z,10.90
2018-10-18T18:05:47.821Z,10.80
2018-10-18T18:08:16.884Z,10.70
2018-10-18T18:10:45.797Z,10.70
2018-10-18T18:13:14.706Z,10.80
2018-10-18T18:15:44.512Z,10.90
2018-10-18T18:18:14.524Z,10.90
2018-10-18T18:20:43.628Z,11.00
2018-10-18T18:23:13.509Z,10.90
2018-10-18T18:25:42.537Z,10.80
2018-10-18T18:28:12.542Z,10.70
2018-10-18T18:30:42.587Z,10.70
2018-10-18T18:33:13.756Z,10.70
2018-10-18T18:35:42.799Z,10.40
2018-10-18T18:38:11.800Z,10.20
2018-10-18T18:40:40.795Z,10.30
2018-10-18T18:43:10.982Z,10.40
2018-10-18T18:45:40.055Z,10.30
2018-10-18T18:48:09.930Z,10.30
2018-10-18T18:50:40.108Z,10.40
2018-10-18T18:53:09.684Z,10.30
2018-10-18T18:55:40.376Z,10.20
2018-10-18T18:58:10.069Z,10.20
2018-10-18T19:00:39.506Z,10.10
2018-10-18T19:03:09.392Z,10.10
2018-10-18T19:05:39.229Z,10.00
2018-10-18T19:10:36.769Z,10.00
2018-10-18T19:13:06.950Z,10.10
2018-10-18T19:15:36.532Z,10.10
2018-10-18T19:18:05.667Z,10.00
2018-10-18T19:20:34.723Z,10.00
2018-10-18T19:23:04.955Z,9.90
2018-10-18T19:25:34.954Z,9.90
2018-10-18T19:28:04.139Z,9.90
2018-10-18T19:30:33.171Z,9.90
2018-10-18T19:33:02.529Z,9.90
2018-10-18T19:35:31.731Z,9.90
2018-10-18T19:38:00.813Z,9.90
2018-10-18T19:40:30.290Z,9.80
2018-10-18T19:42:59.324Z,9.80
2018-10-18T19:45:29.081Z,9.70
2018-10-18T19:47:58.887Z,9.70
2018-10-18T19:50:28.099Z,9.70
2018-10-18T19:52:57.096Z,9.70
2018-10-18T19:55:26.520Z,9.70
2018-10-18T19:57:55.840Z,9.50
2018-10-18T20:00:24.761Z,9.60
2018-10-18T20:02:54.707Z,9.60
2018-10-18T20:05:24.272Z,9.60
2018-10-18T20:07:53.390Z,9.40
2018-10-18T20:10:22.348Z,9.40
2018-10-18T20:12:51.964Z,9.50
2018-10-18T20:15:20.952Z,9.40
2018-10-18T20:17:50.731Z,9.30
2018-10-18T20:20:19.656Z,9.30
2018-10-18T20:22:49.577Z,9.10
2018-10-18T20:25:18.503Z,9.10
2018-10-18T20:27:47.697Z,9.20
2018-10-18T20:30:16.711Z,9.20
2018-10-18T20:32:45.539Z,9.20
2018-10-18T20:35:14.375Z,9.20
2018-10-18T20:37:43.240Z,9.10
2018-10-18T20:40:14.790Z,9.10
2018-10-18T20:42:43.746Z,8.90
2018-10-18T20:45:17.838Z,9.00
2018-10-18T20:47:46.711Z,8.90
2018-10-18T20:50:15.410Z,9.00
2018-10-18T20:52:44.070Z,9.00
2018-10-18T20:55:12.965Z,9.00
2018-10-18T20:57:41.535Z,8.90
2018-10-18T21:00:10.446Z,9.00
2018-10-18T21:02:38.910Z,9.10
2018-10-18T21:05:07.581Z,9.00
2018-10-18T21:07:36.061Z,8.90
2018-10-18T21:10:04.709Z,8.90
2018-10-18T21:12:33.177Z,8.90
2018-10-18T21:15:01.694Z,8.90
2018-10-18T21:17:30.578Z,8.90
2018-10-18T21:19:59.055Z,9.00
2018-10-18T21:22:27.519Z,8.80
2018-10-18T21:24:55.987Z,8.70
2018-10-18T21:27:24.489Z,8.60
2018-10-18T21:29:52.949Z,8.60
2018-10-18T21:32:21.381Z,8.50
2018-10-18T21:34:50.144Z,8.40
2018-10-18T21:37:18.583Z,8.30
2018-10-18T21:39:47.021Z,8.40
2018-10-18T21:42:15.474Z,8.50
2018-10-18T21:44:44.061Z,8.50
2018-10-18T21:47:12.805Z,8.40
2018-10-18T21:49:41.269Z,8.40
2018-10-18T21:52:09.715Z,8.30
2018-10-18T21:54:38.217Z,8.30
2018-10-18T21:57:06.741Z,8.20
2018-10-18T21:59:35.295Z,8.10
2018-10-18T22:02:03.830Z,8.00
2018-10-18T22:04:32.274Z,7.80
2018-10-18T22:07:00.789Z,7.60
2018-10-18T22:09:29.650Z,7.60
2018-10-18T22:11:58.079Z,7.60
2018-10-18T22:14:26.596Z,7.60
2018-10-18T22:16:55.069Z,7.60
2018-10-18T22:19:23.536Z,7.70
2018-10-18T22:21:51.955Z,7.80
2018-10-18T22:24:20.425Z,7.80
2018-10-18T22:26:48.975Z,7.90
2018-10-18T22:29:17.463Z,7.90
2018-10-18T22:31:45.915Z,7.80
2018-10-18T22:34:14.361Z,7.80
2018-10-18T22:36:42.972Z,7.80
2018-10-18T22:39:12.014Z,7.80
2018-10-18T22:41:40.890Z,7.80
2018-10-18T22:44:10.193Z,7.70
2018-10-18T22:46:38.703Z,7.80
2018-10-18T22:49:07.193Z,7.90
2018-10-18T22:51:36.046Z,7.80
2018-10-18T22:54:04.760Z,7.80
2018-10-18T22:56:33.299Z,7.80
2018-10-18T22:59:01.797Z,7.80
2018-10-18T23:01:30.254Z,7.70
2018-10-18T23:03:58.940Z,7.80
2018-10-18T23:06:27.423Z,7.80
2018-10-18T23:08:55.949Z,7.70
2018-10-18T23:11:24.428Z,7.60
2018-10-18T23:13:52.884Z,7.60
2018-10-18T23:16:21.347Z,7.50
2018-10-18T23:18:49.811Z,7.70
2018-10-18T23:21:18.555Z,7.70
2018-10-18T23:23:47.004Z,7.70
2018-10-18T23:26:15.450Z,7.70
2018-10-18T23:28:43.925Z,7.60
2018-10-18T23:31:12.337Z,7.50
2018-10-18T23:33:40.785Z,7.60
2018-10-18T23:36:09.278Z,7.60
2018-10-18T23:38:37.765Z,7.50
2018-10-18T23:41:07.077Z,7.60
2018-10-18T23:43:35.566Z,7.60
2018-10-18T23:46:04.790Z,7.50
2018-10-18T23:48:33.258Z,7.50
2018-10-18T23:51:01.812Z,7.50
2018-10-18T23:53:30.282Z,7.40
2018-10-18T23:55:58.728Z,7.40
2018-10-18T23:58:27.181Z,7.60
